Time;durP1;ratioP1;P1;durP2;ratioP2;P2;SDS_P1;SDS_P2;PMS_P1;PMS_P2;Temp;Humidity;BMP_temperature;BMP_pressure;BME280_temperature;BME280_humidity;BME280_pressure;Samples;Min_cycle;Max_cycle;Signal;HPM_P1;HPM_P2
2022/06/24 00:00:05;;;;;;;6.95;4.63;;;;;;;;;;5035020;28;20382;-73
2022/06/24 00:02:31;;;;;;;6.07;3.75;;;;;;;;;;5022891;28;20037;-76
2022/06/24 00:04:57;;;;;;;6.18;4.90;;;;;;;;;;5019499;28;20379;-76
2022/06/24 00:07:23;;;;;;;9.77;4.93;;;;;;;;;;5020837;28;20021;-76
2022/06/24 00:09:49;;;;;;;7.03;4.57;;;;;;;;;;5022105;28;20025;-80
2022/06/24 00:12:23;;;;;;;6.00;4.10;;;;;;;;;;5018700;28;20107;-76
2022/06/24 00:15:00;;;;;;;7.10;4.22;;;;;;;;;;5010940;28;20127;-77
2022/06/24 00:17:30;;;;;;;5.63;4.07;;;;;;;;;;5023505;28;20405;-77
2022/06/24 00:19:58;;;;;;;5.50;3.97;;;;;;;;;;5025372;28;20394;-78
2022/06/24 00:22:26;;;;;;;6.78;3.80;;;;;;;;;;5023421;28;20505;-76
2022/06/24 00:25:19;;;;;;;6.97;4.07;;;;;;;;;;5018766;28;20025;-76
2022/06/24 00:27:58;;;;;;;;;;;;;;;;;;5021332;28;20041;-78
2022/06/24 00:30:23;;;;;;;5.22;3.72;;;;;;;;;;5014511;28;19920;-78
2022/06/24 00:32:48;;;;;;;7.05;4.90;;;;;;;;;;5022607;28;20034;-77
2022/06/24 00:35:18;;;;;;;8.75;5.78;;;;;;;;;;5023173;28;20068;-77
2022/06/24 00:37:45;;;;;;;7.72;5.88;;;;;;;;;;5025062;28;20042;-73
2022/06/24 00:40:12;;;;;;;8.63;5.95;;;;;;;;;;5024716;28;20478;-75
2022/06/24 00:42:42;;;;;;;8.77;5.57;;;;;;;;;;5023858;28;20122;-77
2022/06/24 00:45:17;;;;;;;9.82;5.50;;;;;;;;;;5023991;28;20032;-75
2022/06/24 00:47:42;;;;;;;9.13;5.13;;;;;;;;;;5017340;28;20065;-76
2022/06/24 00:50:23;;;;;;;11.05;6.55;;;;;;;;;;5019195;28;20138;-74
2022/06/24 00:52:52;;;;;;;11.20;7.13;;;;;;;;;;5018027;28;20389;-75
2022/06/24 00:55:25;;;;;;;10.32;7.50;;;;;;;;;;5019512;28;20036;-76
2022/06/24 00:57:50;;;;;;;11.05;6.72;;;;;;;;;;5018026;28;20034;-75
2022/06/24 01:00:16;;;;;;;10.10;6.13;;;;;;;;;;5024197;28;20386;-76
2022/06/24 01:02:42;;;;;;;9.25;5.75;;;;;;;;;;5025093;28;20052;-76
2022/06/24 01:05:09;;;;;;;7.43;4.85;;;;;;;;;;5023104;28;20083;-73
2022/06/24 01:07:39;;;;;;;7.22;3.72;;;;;;;;;;5025259;28;20079;-76
2022/06/24 01:10:07;;;;;;;5.43;3.30;;;;;;;;;;5022104;28;20043;-76
2022/06/24 01:12:33;;;;;;;5.05;1.90;;;;;;;;;;5022387;28;20037;-73
2022/06/24 01:14:59;;;;;;;3.42;1.42;;;;;;;;;;5020062;28;20052;-75
2022/06/24 01:17:24;;;;;;;3.45;1.40;;;;;;;;;;5024243;28;20461;-77
2022/06/24 01:19:49;;;;;;;2.45;1.10;;;;;;;;;;5026454;28;20029;-73
2022/06/24 01:22:22;;;;;;;3.05;1.10;;;;;;;;;;5023841;28;20125;-73
2022/06/24 01:24:47;;;;;;;2.47;0.95;;;;;;;;;;5025278;28;20032;-75
2022/06/24 01:27:12;;;;;;;3.13;1.00;;;;;;;;;;5018844;28;20498;-78
2022/06/24 01:29:38;;;;;;;3.92;1.30;;;;;;;;;;5019368;28;20159;-77
2022/06/24 01:32:04;;;;;;;2.42;1.10;;;;;;;;;;5026271;28;20021;-76
2022/06/24 01:34:29;;;;;;;2.33;1.10;;;;;;;;;;5028363;28;20049;-77
2022/06/24 01:36:55;;;;;;;2.05;1.27;;;;;;;;;;5024624;28;20057;-75
2022/06/24 01:39:21;;;;;;;5.43;1.48;;;;;;;;;;5025458;28;20041;-77
2022/06/24 01:41:47;;;;;;;3.28;1.60;;;;;;;;;;5022518;28;20067;-74
2022/06/24 01:44:12;;;;;;;2.95;1.45;;;;;;;;;;5021944;28;20043;-78
2022/06/24 01:46:38;;;;;;;2.35;1.42;;;;;;;;;;5027982;28;20537;-79
2022/06/24 01:49:04;;;;;;;3.58;1.95;;;;;;;;;;5027160;28;20061;-73
2022/06/24 01:51:31;;;;;;;4.65;1.88;;;;;;;;;;5021978;28;20027;-79
2022/06/24 01:53:57;;;;;;;3.35;1.90;;;;;;;;;;5025798;28;20040;-76
2022/06/24 01:56:22;;;;;;;3.20;1.50;;;;;;;;;;5028740;28;20029;-75
2022/06/24 01:58:48;;;;;;;1.92;1.10;;;;;;;;;;5021925;28;20108;-76
2022/06/24 02:01:13;;;;;;;1.35;0.90;;;;;;;;;;5022356;28;20135;-76
2022/06/24 02:03:40;;;;;;;1.95;0.90;;;;;;;;;;5024860;28;20036;-77
2022/06/24 02:06:08;;;;;;;2.47;0.75;;;;;;;;;;5026750;28;20035;-75
2022/06/24 02:08:33;;;;;;;1.13;0.60;;;;;;;;;;5023411;28;20096;-76
2022/06/24 02:13:45;;;;;;;1.08;0.45;;;;;;;;;;5025015;28;20524;-78
2022/06/24 02:16:10;;;;;;;1.70;0.65;;;;;;;;;;5029089;28;20037;-75
2022/06/24 02:18:36;;;;;;;0.73;0.45;;;;;;;;;;5020361;28;20730;-76
2022/06/24 02:21:02;;;;;;;0.95;0.50;;;;;;;;;;5024041;28;20112;-73
2022/06/24 02:23:28;;;;;;;2.40;0.60;;;;;;;;;;5021778;28;20215;-73
2022/06/24 02:25:54;;;;;;;1.27;0.47;;;;;;;;;;5022834;28;20025;-77
2022/06/24 02:28:20;;;;;;;1.05;0.50;;;;;;;;;;5026476;28;20045;-77
2022/06/24 02:30:46;;;;;;;1.27;0.52;;;;;;;;;;5019344;28;20116;-76
2022/06/24 02:33:13;;;;;;;0.88;0.50;;;;;;;;;;5023438;28;20449;-76
2022/06/24 02:35:39;;;;;;;1.60;0.57;;;;;;;;;;5027230;28;20049;-73
2022/06/24 02:38:05;;;;;;;1.67;0.63;;;;;;;;;;5026244;28;20128;-81
2022/06/24 02:40:46;;;;;;;0.75;0.40;;;;;;;;;;5022468;28;20036;-80
2022/06/24 02:43:21;;;;;;;1.92;0.50;;;;;;;;;;5020468;28;20033;-76
2022/06/24 02:45:48;;;;;;;0.85;0.50;;;;;;;;;;5027875;28;20030;-77
2022/06/24 02:48:15;;;;;;;1.50;0.70;;;;;;;;;;5023352;28;20021;-78
2022/06/24 02:50:44;;;;;;;1.52;0.73;;;;;;;;;;5018973;28;20036;-76
2022/06/24 02:53:10;;;;;;;1.95;0.80;;;;;;;;;;5017934;28;20509;-78
2022/06/24 02:55:36;;;;;;;1.27;0.57;;;;;;;;;;5024931;28;20044;-75
2022/06/24 02:58:03;;;;;;;1.15;0.70;;;;;;;;;;5020918;28;20113;-79
2022/06/24 03:00:29;;;;;;;0.90;0.55;;;;;;;;;;5021849;28;20037;-78
2022/06/24 03:02:54;;;;;;;5.75;1.02;;;;;;;;;;5019585;28;22547;-79
2022/06/24 03:05:20;;;;;;;1.88;0.70;;;;;;;;;;5024995;28;20036;-76
2022/06/24 03:07:45;;;;;;;2.60;0.88;;;;;;;;;;5026476;28;20057;-77
2022/06/24 03:10:11;;;;;;;1.80;0.77;;;;;;;;;;5021602;28;20021;-80
2022/06/24 03:12:36;;;;;;;3.15;0.82;;;;;;;;;;5020812;28;20665;-76
2022/06/24 03:15:02;;;;;;;2.30;0.65;;;;;;;;;;5024994;28;20025;-73
2022/06/24 03:17:27;;;;;;;1.92;0.75;;;;;;;;;;5025838;28;20505;-77
2022/06/24 03:19:52;;;;;;;1.35;0.70;;;;;;;;;;5022256;28;20044;-77
2022/06/24 03:22:18;;;;;;;1.02;0.60;;;;;;;;;;5037329;28;20029;-76
2022/06/24 03:24:43;;;;;;;2.17;0.70;;;;;;;;;;5024286;28;20397;-73
2022/06/24 03:27:08;;;;;;;2.97;1.08;;;;;;;;;;5024330;28;20247;-76
2022/06/24 03:29:34;;;;;;;1.67;0.70;;;;;;;;;;5022761;28;20029;-76
2022/06/24 03:31:59;;;;;;;3.67;1.10;;;;;;;;;;5023608;28;20412;-76
2022/06/24 03:34:25;;;;;;;1.85;0.80;;;;;;;;;;5019620;28;20037;-76
2022/06/24 03:36:50;;;;;;;2.42;0.85;;;;;;;;;;5025113;28;20045;-80
2022/06/24 03:39:15;;;;;;;3.17;1.20;;;;;;;;;;5024425;28;20037;-77
2022/06/24 03:41:41;;;;;;;2.92;0.80;;;;;;;;;;5020138;28;20822;-76
2022/06/24 03:44:06;;;;;;;2.15;1.00;;;;;;;;;;5023478;28;20504;-77
2022/06/24 03:46:32;;;;;;;9.55;1.70;;;;;;;;;;5010166;28;20759;-81
2022/06/24 03:48:57;;;;;;;1.45;0.90;;;;;;;;;;5020985;28;23719;-77
2022/06/24 03:51:25;;;;;;;3.65;1.13;;;;;;;;;;5021221;28;20035;-76
2022/06/24 03:53:51;;;;;;;2.20;1.10;;;;;;;;;;5021350;28;20071;-77
2022/06/24 03:56:16;;;;;;;2.17;1.40;;;;;;;;;;5028101;28;20481;-77
2022/06/24 03:58:41;;;;;;;2.15;1.30;;;;;;;;;;5022551;28;20064;-76
2022/06/24 04:01:07;;;;;;;2.13;1.30;;;;;;;;;;5023399;28;20040;-73
2022/06/24 04:03:33;;;;;;;2.58;1.20;;;;;;;;;;5021206;28;20521;-80
2022/06/24 04:05:58;;;;;;;3.85;1.40;;;;;;;;;;5022130;28;20035;-76
2022/06/24 04:08:23;;;;;;;2.22;1.40;;;;;;;;;;5020937;28;20022;-77
2022/06/24 04:10:49;;;;;;;2.85;1.23;;;;;;;;;;5018866;28;20034;-75
2022/06/24 04:13:14;;;;;;;6.43;1.60;;;;;;;;;;5021298;28;20033;-81
2022/06/24 04:15:44;;;;;;;2.65;1.55;;;;;;;;;;5017358;28;20052;-76
2022/06/24 04:18:10;;;;;;;2.85;1.60;;;;;;;;;;5021743;28;20053;-75
2022/06/24 04:20:35;;;;;;;2.38;1.50;;;;;;;;;;5018058;28;20076;-76
2022/06/24 04:23:04;;;;;;;3.90;1.80;;;;;;;;;;5026605;28;20036;-80
2022/06/24 04:25:30;;;;;;;4.15;1.60;;;;;;;;;;5022279;28;20048;-77
2022/06/24 04:27:55;;;;;;;3.42;1.50;;;;;;;;;;5021953;28;20856;-76
2022/06/24 04:30:21;;;;;;;3.92;1.60;;;;;;;;;;5017407;28;22290;-75
2022/06/24 04:32:46;;;;;;;4.60;1.80;;;;;;;;;;5025019;28;20025;-80
2022/06/24 04:35:14;;;;;;;3.55;2.40;;;;;;;;;;5022038;28;20045;-76
2022/06/24 04:37:40;;;;;;;4.10;2.20;;;;;;;;;;5026400;28;20063;-77
2022/06/24 04:40:08;;;;;;;5.70;1.90;;;;;;;;;;5022851;28;20079;-80
2022/06/24 04:42:34;;;;;;;3.10;1.90;;;;;;;;;;5019620;28;20436;-74
2022/06/24 04:44:59;;;;;;;5.32;1.95;;;;;;;;;;5017009;28;20029;-81
2022/06/24 04:47:25;;;;;;;6.07;2.10;;;;;;;;;;5021129;28;20116;-77
2022/06/24 04:49:50;;;;;;;6.05;2.40;;;;;;;;;;5020918;28;20033;-74
2022/06/24 04:52:16;;;;;;;3.80;1.88;;;;;;;;;;5023971;28;20116;-76
2022/06/24 04:54:42;;;;;;;4.25;2.03;;;;;;;;;;5019642;28;20033;-73
2022/06/24 04:57:07;;;;;;;6.00;2.35;;;;;;;;;;5021002;28;20029;-75
2022/06/24 04:59:33;;;;;;;3.67;1.75;;;;;;;;;;5019417;28;20021;-80
2022/06/24 05:01:59;;;;;;;4.60;1.90;;;;;;;;;;5017524;28;20555;-77
2022/06/24 05:04:24;;;;;;;6.72;1.90;;;;;;;;;;5018965;28;20393;-77
2022/06/24 05:06:49;;;;;;;3.65;2.00;;;;;;;;;;5025400;28;20861;-74
2022/06/24 05:09:18;;;;;;;3.60;2.08;;;;;;;;;;5020622;28;20033;-76
2022/06/24 05:11:45;;;;;;;4.13;2.10;;;;;;;;;;5021226;28;20478;-77
2022/06/24 05:14:11;;;;;;;2.78;1.70;;;;;;;;;;5022311;28;20025;-76
2022/06/24 05:16:36;;;;;;;2.60;1.50;;;;;;;;;;5025374;28;20038;-76
2022/06/24 05:19:02;;;;;;;5.43;2.20;;;;;;;;;;5023883;28;20032;-80
2022/06/24 05:21:27;;;;;;;4.22;1.80;;;;;;;;;;5025039;28;20485;-77
2022/06/24 05:23:52;;;;;;;3.97;2.00;;;;;;;;;;5025471;28;20029;-78
2022/06/24 05:26:18;;;;;;;3.53;2.13;;;;;;;;;;5024331;28;20079;-81
2022/06/24 05:28:44;;;;;;;4.25;2.10;;;;;;;;;;5023625;28;20026;-77
2022/06/24 05:31:09;;;;;;;3.45;2.00;;;;;;;;;;5019506;28;20102;-81
2022/06/24 05:33:35;;;;;;;2.63;2.03;;;;;;;;;;5025313;28;20086;-76
2022/06/24 05:36:00;;;;;;;4.15;2.00;;;;;;;;;;5017102;28;20053;-77
2022/06/24 05:38:25;;;;;;;3.72;2.17;;;;;;;;;;5022324;28;20041;-77
2022/06/24 05:40:51;;;;;;;3.70;2.28;;;;;;;;;;5010890;28;20037;-74
2022/06/24 05:43:21;;;;;;;3.67;2.53;;;;;;;;;;5017889;28;20104;-76
2022/06/24 05:45:47;;;;;;;4.10;2.22;;;;;;;;;;5018241;28;20057;-81
2022/06/24 05:48:13;;;;;;;4.13;2.30;;;;;;;;;;5019701;28;20430;-82
2022/06/24 05:50:39;;;;;;;4.13;2.30;;;;;;;;;;5017326;28;20532;-76
2022/06/24 05:55:49;;;;;;;3.95;2.45;;;;;;;;;;5019178;28;20087;-73
2022/06/24 05:58:15;;;;;;;4.32;2.30;;;;;;;;;;5018931;28;20033;-81
2022/06/24 06:00:40;;;;;;;4.30;2.78;;;;;;;;;;5036217;28;20460;-76
2022/06/24 06:03:05;;;;;;;3.85;2.55;;;;;;;;;;5024129;28;20043;-75
2022/06/24 06:05:31;;;;;;;4.10;2.88;;;;;;;;;;5024788;28;20028;-82
2022/06/24 06:07:56;;;;;;;3.92;2.75;;;;;;;;;;5023242;28;20036;-82
2022/06/24 06:10:22;;;;;;;5.35;2.78;;;;;;;;;;5021965;28;20109;-75
2022/06/24 06:12:47;;;;;;;4.15;3.08;;;;;;;;;;5018329;28;20029;-75
2022/06/24 06:15:12;;;;;;;5.78;3.00;;;;;;;;;;5025468;28;20037;-74
2022/06/24 06:17:38;;;;;;;4.35;2.80;;;;;;;;;;5017693;28;20512;-73
2022/06/24 06:20:04;;;;;;;4.40;2.80;;;;;;;;;;5022831;28;20040;-76
2022/06/24 06:22:29;;;;;;;4.10;2.92;;;;;;;;;;5022134;28;20456;-74
2022/06/24 06:24:55;;;;;;;7.43;3.70;;;;;;;;;;5022847;28;20034;-81
2022/06/24 06:27:21;;;;;;;5.80;3.10;;;;;;;;;;5024714;28;20020;-75
2022/06/24 06:29:47;;;;;;;5.80;3.42;;;;;;;;;;5019089;28;20565;-81
2022/06/24 06:32:12;;;;;;;5.55;3.08;;;;;;;;;;5024652;28;20035;-75
2022/06/24 06:34:38;;;;;;;5.22;3.15;;;;;;;;;;5021202;28;20053;-76
2022/06/24 06:37:04;;;;;;;7.35;3.60;;;;;;;;;;5020035;28;20112;-78
2022/06/24 06:39:29;;;;;;;5.15;3.33;;;;;;;;;;5030547;28;20064;-77
2022/06/24 06:41:54;;;;;;;4.30;3.40;;;;;;;;;;5011307;28;20040;-74
2022/06/24 06:44:20;;;;;;;5.15;3.70;;;;;;;;;;5021231;28;20074;-79
2022/06/24 06:46:45;;;;;;;6.75;3.83;;;;;;;;;;5020428;28;20382;-77
2022/06/24 06:49:11;;;;;;;5.35;3.33;;;;;;;;;;5015881;28;20041;-73
2022/06/24 06:51:36;;;;;;;5.05;3.70;;;;;;;;;;5020473;28;20766;-78
2022/06/24 06:54:02;;;;;;;5.15;3.40;;;;;;;;;;5026742;28;20029;-78
2022/06/24 06:56:27;;;;;;;7.25;3.83;;;;;;;;;;5023713;28;20029;-80
2022/06/24 06:58:52;;;;;;;6.70;3.63;;;;;;;;;;5026787;28;20061;-75
2022/06/24 07:01:18;;;;;;;5.25;3.88;;;;;;;;;;5022289;28;20083;-76
2022/06/24 07:03:43;;;;;;;7.00;3.85;;;;;;;;;;5027490;28;20033;-78
2022/06/24 07:06:09;;;;;;;6.40;3.90;;;;;;;;;;5022680;28;20061;-83
2022/06/24 07:08:34;;;;;;;5.75;3.55;;;;;;;;;;5029007;28;20021;-78
2022/06/24 07:10:59;;;;;;;6.85;3.60;;;;;;;;;;5030281;28;20105;-73
2022/06/24 07:13:25;;;;;;;7.43;4.22;;;;;;;;;;5026021;28;20026;-79
2022/06/24 07:15:50;;;;;;;7.90;4.30;;;;;;;;;;5023063;28;20104;-78
2022/06/24 07:18:16;;;;;;;5.35;3.60;;;;;;;;;;5021325;28;20036;-81
2022/06/24 07:20:44;;;;;;;5.10;3.78;;;;;;;;;;5021308;28;20028;-73
2022/06/24 07:23:09;;;;;;;7.55;3.85;;;;;;;;;;5027819;28;20477;-76
2022/06/24 07:25:35;;;;;;;5.35;4.05;;;;;;;;;;5023967;28;20134;-73
2022/06/24 07:28:00;;;;;;;5.55;3.70;;;;;;;;;;5025383;28;20022;-78
2022/06/24 07:30:27;;;;;;;6.03;3.72;;;;;;;;;;5023854;28;20041;-78
2022/06/24 07:32:52;;;;;;;6.20;3.85;;;;;;;;;;5022587;28;20036;-76
2022/06/24 07:35:18;;;;;;;8.27;4.70;;;;;;;;;;5021945;28;20049;-75
2022/06/24 07:37:43;;;;;;;5.72;3.83;;;;;;;;;;5029179;28;20033;-75
2022/06/24 07:40:09;;;;;;;5.53;4.00;;;;;;;;;;5023696;28;20021;-75
2022/06/24 07:42:35;;;;;;;6.25;4.38;;;;;;;;;;5027130;28;20083;-76
2022/06/24 07:45:00;;;;;;;5.22;4.10;;;;;;;;;;5017564;28;20059;-78
2022/06/24 07:47:26;;;;;;;5.93;4.25;;;;;;;;;;5025516;28;20026;-76
2022/06/24 07:49:51;;;;;;;6.30;4.60;;;;;;;;;;5025369;28;20033;-77
2022/06/24 07:52:17;;;;;;;7.57;5.28;;;;;;;;;;5029482;28;20029;-75
2022/06/24 07:54:42;;;;;;;6.70;4.28;;;;;;;;;;5029673;28;20522;-76
2022/06/24 07:57:07;;;;;;;5.55;4.47;;;;;;;;;;5034144;28;20049;-75
2022/06/24 07:59:35;;;;;;;7.30;4.75;;;;;;;;;;5029922;28;20405;-83
2022/06/24 08:02:03;;;;;;;6.05;4.30;;;;;;;;;;5027529;28;20557;-73
2022/06/24 08:04:29;;;;;;;7.57;5.15;;;;;;;;;;5023170;28;20033;-75
2022/06/24 08:06:55;;;;;;;5.93;4.30;;;;;;;;;;5032811;28;20465;-81
2022/06/24 08:09:23;;;;;;;7.28;4.88;;;;;;;;;;5026539;28;20105;-78
2022/06/24 08:11:49;;;;;;;6.95;5.03;;;;;;;;;;5021491;28;20025;-73
2022/06/24 08:14:15;;;;;;;8.00;5.38;;;;;;;;;;5018707;28;20095;-72
2022/06/24 08:16:42;;;;;;;6.72;5.20;;;;;;;;;;5024611;28;20037;-79
2022/06/24 08:19:07;;;;;;;6.65;5.70;;;;;;;;;;5023141;28;20119;-85
2022/06/24 08:21:33;;;;;;;7.28;5.63;;;;;;;;;;5020815;28;20104;-75
2022/06/24 08:29:06;;;;;;;7.65;5.90;;;;;;;;;;5025216;28;20060;-74
2022/06/24 08:31:32;;;;;;;7.43;5.53;;;;;;;;;;5028913;28;20029;-84
2022/06/24 08:33:57;;;;;;;7.53;6.18;;;;;;;;;;5025014;28;20107;-82
2022/06/24 08:36:26;;;;;;;6.55;5.72;;;;;;;;;;5024713;28;20025;-72
2022/06/24 08:38:51;;;;;;;7.97;5.95;;;;;;;;;;5008746;28;20048;-76
2022/06/24 08:41:22;;;;;;;6.90;5.95;;;;;;;;;;5009928;28;20057;-76
2022/06/24 08:43:51;;;;;;;8.55;5.75;;;;;;;;;;5026956;28;20044;-84
2022/06/24 08:46:17;;;;;;;7.72;6.03;;;;;;;;;;5032412;28;20032;-72
2022/06/24 08:48:43;;;;;;;9.88;6.40;;;;;;;;;;5029507;28;20022;-73
2022/06/24 08:51:11;;;;;;;9.60;6.25;;;;;;;;;;5006380;28;20032;-73
2022/06/24 08:53:39;;;;;;;11.35;6.43;;;;;;;;;;5015685;28;20491;-76
2022/06/24 08:56:05;;;;;;;8.55;6.72;;;;;;;;;;5011505;28;20538;-78
2022/06/24 08:58:30;;;;;;;11.05;7.38;;;;;;;;;;5011001;28;20028;-79
2022/06/24 09:00:56;;;;;;;11.45;7.00;;;;;;;;;;5031211;28;20473;-78
2022/06/24 09:03:21;;;;;;;7.50;5.90;;;;;;;;;;5027792;28;20029;-81
2022/06/24 09:05:48;;;;;;;8.20;6.50;;;;;;;;;;5012231;28;20029;-82
2022/06/24 09:08:15;;;;;;;8.00;6.57;;;;;;;;;;5005685;28;20028;-79
2022/06/24 09:11:06;;;;;;;10.55;7.70;;;;;;;;;;5029456;28;20029;-74
2022/06/24 09:13:56;;;;;;;10.00;8.13;;;;;;;;;;5013177;28;20053;-80
2022/06/24 09:16:25;;;;;;;8.73;7.05;;;;;;;;;;5013194;28;20064;-79
2022/06/24 09:18:51;;;;;;;10.90;9.18;;;;;;;;;;5013113;28;20067;-79
2022/06/24 09:21:24;;;;;;;11.70;9.25;;;;;;;;;;5031211;28;20025;-78
2022/06/24 09:23:52;;;;;;;14.32;10.10;;;;;;;;;;5028126;28;20028;-82
2022/06/24 09:26:27;;;;;;;11.27;9.10;;;;;;;;;;5010026;28;20033;-76
2022/06/24 09:28:57;;;;;;;10.10;7.05;;;;;;;;;;5027216;28;20057;-77
2022/06/24 09:31:28;;;;;;;9.55;7.10;;;;;;;;;;5024773;28;20078;-76
2022/06/24 09:33:54;;;;;;;10.07;7.10;;;;;;;;;;5029359;28;20058;-78
2022/06/24 09:36:25;;;;;;;9.15;7.40;;;;;;;;;;5030110;28;20032;-75
2022/06/24 09:38:53;;;;;;;6.70;5.70;;;;;;;;;;5015408;28;20495;-79
2022/06/24 09:41:18;;;;;;;9.38;6.03;;;;;;;;;;5023632;28;20069;-81
2022/06/24 09:43:45;;;;;;;7.82;5.90;;;;;;;;;;5005514;28;20155;-74
2022/06/24 09:46:18;;;;;;;6.28;4.43;;;;;;;;;;5026806;28;20036;-81
2022/06/24 09:48:43;;;;;;;5.20;3.90;;;;;;;;;;5008820;28;20017;-75
2022/06/24 09:51:08;;;;;;;5.32;4.32;;;;;;;;;;5012415;28;20048;-81
2022/06/24 09:53:36;;;;;;;5.47;4.10;;;;;;;;;;5021923;28;20021;-81
2022/06/24 09:56:03;;;;;;;7.40;4.80;;;;;;;;;;5028055;28;20431;-78
2022/06/24 09:58:29;;;;;;;9.15;6.60;;;;;;;;;;5031608;28;20380;-75
2022/06/24 10:00:54;;;;;;;8.73;6.78;;;;;;;;;;5036774;28;20036;-78
2022/06/24 10:03:20;;;;;;;9.38;7.10;;;;;;;;;;5036566;28;20028;-74
2022/06/24 10:05:47;;;;;;;8.50;6.38;;;;;;;;;;5032897;28;20033;-72
2022/06/24 10:08:16;;;;;;;10.10;7.50;;;;;;;;;;5034895;28;20085;-72
2022/06/24 10:10:47;;;;;;;9.65;6.55;;;;;;;;;;5025650;28;20029;-73
2022/06/24 10:13:26;;;;;;;10.43;7.97;;;;;;;;;;5017507;28;20120;-74
2022/06/24 10:15:56;;;;;;;11.13;9.20;;;;;;;;;;5014980;28;20033;-80
2022/06/24 10:18:26;;;;;;;11.68;10.18;;;;;;;;;;5029276;28;20060;-73
2022/06/24 10:21:03;;;;;;;11.77;9.50;;;;;;;;;;5018030;28;20042;-75
2022/06/24 10:23:35;;;;;;;12.75;10.75;;;;;;;;;;5029482;28;20029;-74
2022/06/24 10:26:09;;;;;;;13.32;9.50;;;;;;;;;;5009711;28;20356;-73
2022/06/24 10:29:00;;;;;;;14.85;10.45;;;;;;;;;;5025708;28;20386;-76
2022/06/24 10:31:53;;;;;;;12.00;9.52;;;;;;;;;;5026177;28;20489;-73
2022/06/24 10:34:22;;;;;;;13.80;10.55;;;;;;;;;;5026647;28;20409;-75
2022/06/24 10:37:06;;;;;;;12.55;11.25;;;;;;;;;;5006554;28;20115;-75
2022/06/24 10:39:43;;;;;;;14.50;11.70;;;;;;;;;;5028943;28;20037;-73
2022/06/24 10:42:14;;;;;;;16.60;11.93;;;;;;;;;;5028162;28;20116;-74
2022/06/24 10:44:50;;;;;;;13.95;11.50;;;;;;;;;;5015701;28;20041;-73
2022/06/24 10:47:15;;;;;;;12.20;10.30;;;;;;;;;;5008538;28;20017;-75
2022/06/24 10:49:50;;;;;;;16.88;12.43;;;;;;;;;;5005756;28;20026;-74
2022/06/24 10:52:36;;;;;;;14.13;11.90;;;;;;;;;;5032174;28;20488;-80
2022/06/24 10:55:29;;;;;;;14.10;12.00;;;;;;;;;;5011850;28;20038;-83
2022/06/24 10:57:56;;;;;;;13.45;11.38;;;;;;;;;;5031334;28;20108;-74
2022/06/24 11:00:26;;;;;;;13.80;12.20;;;;;;;;;;5030481;28;20045;-81
2022/06/24 11:03:12;;;;;;;17.60;12.48;;;;;;;;;;5011353;28;20048;-79
2022/06/24 11:05:42;;;;;;;16.83;14.30;;;;;;;;;;5010200;28;20129;-78
2022/06/24 11:08:19;;;;;;;16.35;14.15;;;;;;;;;;5010425;28;20376;-78
2022/06/24 11:10:47;;;;;;;12.23;10.23;;;;;;;;;;5021432;28;20040;-78
2022/06/24 11:13:13;;;;;;;6.50;4.75;;;;;;;;;;5030613;28;20029;-83
2022/06/24 11:15:42;;;;;;;5.20;3.38;;;;;;;;;;5016012;28;20079;-75
2022/06/24 11:18:31;;;;;;;5.97;3.03;;;;;;;;;;5011022;28;20051;-75
2022/06/24 11:21:01;;;;;;;4.40;2.30;;;;;;;;;;5027418;28;20110;-83
2022/06/24 11:23:29;;;;;;;2.90;2.10;;;;;;;;;;5014591;28;20116;-85
2022/06/24 11:26:00;;;;;;;3.47;2.10;;;;;;;;;;5012610;28;20030;-74
2022/06/24 11:28:28;;;;;;;3.85;2.38;;;;;;;;;;5032255;28;20046;-75
2022/06/24 11:30:55;;;;;;;3.35;2.20;;;;;;;;;;5028585;28;20156;-76
2022/06/24 11:33:21;;;;;;;3.03;2.25;;;;;;;;;;5031948;28;20059;-75
2022/06/24 11:35:48;;;;;;;8.27;2.30;;;;;;;;;;5011579;28;20025;-74
2022/06/24 11:38:15;;;;;;;4.25;2.25;;;;;;;;;;5012394;28;20038;-74
2022/06/24 11:40:41;;;;;;;3.95;2.10;;;;;;;;;;5030427;28;20572;-76
2022/06/24 11:43:09;;;;;;;3.08;2.10;;;;;;;;;;5030362;28;20424;-74
2022/06/24 11:45:36;;;;;;;4.18;1.95;;;;;;;;;;5026638;28;20230;-75
2022/06/24 11:48:03;;;;;;;4.10;2.03;;;;;;;;;;5033889;28;20377;-82
2022/06/24 11:50:29;;;;;;;2.38;1.92;;;;;;;;;;5029825;28;20025;-74
2022/06/24 11:52:57;;;;;;;3.03;1.90;;;;;;;;;;5026832;28;20037;-79
2022/06/24 11:55:29;;;;;;;3.33;1.65;;;;;;;;;;5008990;28;20025;-79
2022/06/24 11:57:59;;;;;;;2.58;1.75;;;;;;;;;;5031013;28;20026;-79
2022/06/24 12:00:27;;;;;;;2.70;1.80;;;;;;;;;;5011317;28;20056;-74
2022/06/24 12:02:55;;;;;;;3.70;1.90;;;;;;;;;;5012354;28;20056;-75
2022/06/24 12:05:24;;;;;;;4.85;2.05;;;;;;;;;;5013305;28;20416;-84
2022/06/24 12:07:51;;;;;;;2.08;1.70;;;;;;;;;;5032909;28;20036;-73
2022/06/24 12:10:16;;;;;;;2.95;2.15;;;;;;;;;;5006093;28;20112;-82
2022/06/24 12:13:05;;;;;;;3.45;2.63;;;;;;;;;;5009351;28;20112;-80
2022/06/24 12:15:37;;;;;;;3.83;2.60;;;;;;;;;;5029525;28;20080;-79
2022/06/24 12:18:18;;;;;;;3.35;2.00;;;;;;;;;;5027658;28;20385;-75
2022/06/24 12:20:54;;;;;;;3.22;2.40;;;;;;;;;;5026748;28;20078;-75
2022/06/24 12:23:21;;;;;;;2.50;1.80;;;;;;;;;;5026041;28;20033;-79
2022/06/24 12:25:51;;;;;;;3.42;1.60;;;;;;;;;;5011490;28;20029;-80
2022/06/24 12:28:19;;;;;;;2.03;1.25;;;;;;;;;;5028034;28;20041;-73
2022/06/24 12:31:14;;;;;;;2.83;1.02;;;;;;;;;;5017930;28;20397;-72
2022/06/24 12:33:48;;;;;;;1.50;1.05;;;;;;;;;;5002823;28;20072;-73
2022/06/24 12:36:16;;;;;;;1.92;0.90;;;;;;;;;;5025130;28;20045;-77
2022/06/24 12:38:53;;;;;;;1.70;1.08;;;;;;;;;;5027116;28;20119;-76
2022/06/24 12:41:20;;;;;;;2.10;1.10;;;;;;;;;;5027060;28;20033;-72
2022/06/24 12:43:59;;;;;;;3.53;1.85;;;;;;;;;;5029355;28;20022;-79
2022/06/24 12:46:32;;;;;;;3.15;1.98;;;;;;;;;;5007633;28;20512;-77
2022/06/24 12:51:50;;;;;;;4.38;2.70;;;;;;;;;;5030073;28;19987;-72
2022/06/24 12:54:16;;;;;;;4.20;3.42;;;;;;;;;;5030902;28;20092;-77
2022/06/24 12:56:42;;;;;;;4.82;3.83;;;;;;;;;;5029320;28;20037;-77
2022/06/24 12:59:08;;;;;;;4.68;3.65;;;;;;;;;;5031721;28;20366;-73
2022/06/24 13:01:46;;;;;;;4.45;3.30;;;;;;;;;;5031650;28;20112;-77
2022/06/24 13:04:13;;;;;;;3.80;3.20;;;;;;;;;;5011206;28;20492;-77
2022/06/24 13:06:38;;;;;;;4.88;2.90;;;;;;;;;;5025194;28;20026;-72
2022/06/24 13:09:06;;;;;;;4.78;3.20;;;;;;;;;;5022664;28;20037;-75
2022/06/24 13:11:32;;;;;;;4.43;2.80;;;;;;;;;;5012597;28;20029;-72
2022/06/24 13:13:58;;;;;;;3.13;2.10;;;;;;;;;;5027713;28;20048;-79
2022/06/24 13:16:23;;;;;;;3.55;2.10;;;;;;;;;;5025779;28;20454;-72
2022/06/24 13:18:49;;;;;;;3.15;2.10;;;;;;;;;;5029394;28;20025;-73
2022/06/24 13:21:14;;;;;;;4.30;2.25;;;;;;;;;;5033451;28;20040;-79
2022/06/24 13:23:40;;;;;;;2.30;1.60;;;;;;;;;;5032611;28;20060;-77
2022/06/24 13:26:06;;;;;;;5.15;2.50;;;;;;;;;;5030692;28;20130;-79
2022/06/24 13:28:33;;;;;;;3.83;2.60;;;;;;;;;;5026701;28;20164;-75
2022/06/24 13:30:59;;;;;;;2.13;1.52;;;;;;;;;;5032312;28;20048;-78
2022/06/24 13:33:25;;;;;;;3.67;1.10;;;;;;;;;;5034000;28;20485;-77
2022/06/24 13:35:50;;;;;;;1.95;1.15;;;;;;;;;;5035654;28;20078;-78
2022/06/24 13:38:16;;;;;;;2.85;1.05;;;;;;;;;;5031138;28;20037;-75
2022/06/24 13:40:41;;;;;;;1.08;0.93;;;;;;;;;;5023453;28;20041;-73
2022/06/24 13:43:07;;;;;;;1.90;0.85;;;;;;;;;;5011494;28;20044;-73
2022/06/24 13:45:32;;;;;;;1.15;0.70;;;;;;;;;;5033783;28;20021;-79
2022/06/24 13:47:59;;;;;;;1.67;0.82;;;;;;;;;;5029162;28;20024;-78
2022/06/24 13:50:26;;;;;;;1.20;0.70;;;;;;;;;;5008921;28;20036;-72
2022/06/24 13:52:51;;;;;;;1.45;1.17;;;;;;;;;;5030089;28;20064;-78
2022/06/24 13:55:16;;;;;;;2.35;1.23;;;;;;;;;;5018734;28;20123;-74
2022/06/24 13:57:42;;;;;;;4.35;2.70;;;;;;;;;;5029225;28;20022;-74
2022/06/24 14:00:09;;;;;;;3.00;1.70;;;;;;;;;;5029814;28;20084;-75
2022/06/24 14:02:35;;;;;;;2.35;1.50;;;;;;;;;;5029063;28;20123;-73
2022/06/24 14:05:00;;;;;;;1.42;1.10;;;;;;;;;;5030045;28;20470;-81
2022/06/24 14:07:25;;;;;;;1.80;1.17;;;;;;;;;;5034351;28;20112;-72
2022/06/24 14:09:51;;;;;;;2.10;1.20;;;;;;;;;;5031830;28;20358;-72
2022/06/24 14:12:16;;;;;;;2.72;1.25;;;;;;;;;;5032942;28;20063;-80
2022/06/24 14:14:42;;;;;;;2.70;1.30;;;;;;;;;;5008130;28;20389;-77
2022/06/24 14:17:07;;;;;;;1.67;1.00;;;;;;;;;;5011812;28;20018;-77
2022/06/24 14:19:32;;;;;;;2.28;1.15;;;;;;;;;;5015665;28;20518;-82
2022/06/24 14:21:58;;;;;;;1.40;1.10;;;;;;;;;;5029512;28;20027;-73
2022/06/24 14:24:32;;;;;;;1.52;1.20;;;;;;;;;;5028967;28;20481;-71
2022/06/24 14:27:03;;;;;;;1.90;1.30;;;;;;;;;;5028362;28;20353;-76
2022/06/24 14:29:28;;;;;;;3.42;1.15;;;;;;;;;;5026673;28;20432;-73
2022/06/24 14:31:54;;;;;;;1.88;1.30;;;;;;;;;;5036324;28;20027;-71
2022/06/24 14:34:20;;;;;;;1.70;1.27;;;;;;;;;;5030051;28;20048;-76
2022/06/24 14:36:45;;;;;;;2.15;1.20;;;;;;;;;;5015457;28;20021;-81
2022/06/24 14:41:55;;;;;;;2.22;1.30;;;;;;;;;;5032873;28;20119;-73
2022/06/24 14:44:20;;;;;;;2.03;1.40;;;;;;;;;;5011407;28;20460;-71
2022/06/24 14:46:45;;;;;;;1.67;1.13;;;;;;;;;;5019134;28;20041;-72
2022/06/24 14:49:11;;;;;;;2.53;1.20;;;;;;;;;;5033534;28;20022;-72
2022/06/24 14:51:36;;;;;;;1.70;1.10;;;;;;;;;;5032592;28;20075;-73
2022/06/24 14:54:02;;;;;;;1.67;1.20;;;;;;;;;;5034462;28;20025;-75
2022/06/24 14:56:27;;;;;;;2.13;1.40;;;;;;;;;;5029456;28;20040;-73
2022/06/24 14:58:53;;;;;;;2.03;1.30;;;;;;;;;;5011337;28;20049;-76